Terminal Aerodrome Forecast
Issued by NWS Greer, SC

Home | Current Version | Previous Version | Text Only | Print | Product List | Glossary On
Versions: 1 2 3 4 5 6 7 8 9 10 11 12 13 14 15 16 17
000
FTUS42 KGSP 020215 AAB
TAFGSP
TAF AMD
KGSP 020215Z 0202/0224 23005KT P6SM SCT045 BKN100
      TEMPO 0203/0207 21010G17KT 5SM -TSRA BKN040CB
     FM021100 21005KT 5SM BR BKN020
     FM021300 21006KT P6SM SCT035 BKN080
     FM021800 20010KT P6SM SCT040 BKN150 PROB30 0218/0224 4SM -TSRA
      OVC040CB=

USA.gov is the U.S. government's official web portal to all federal, state and local government web resources and services.